sensor_id;sensor_type;location;lat;lon;timestamp;P1;durP1;ratioP1;P2;durP2;ratioP2
65328;SDS011;51941;52.210;5.158;2023-11-21T00:01:57;24.50;;;11.75;;
65328;SDS011;51941;52.210;5.158;2023-11-21T00:04:24;23.88;;;12.82;;
65328;SDS011;51941;52.210;5.158;2023-11-21T00:06:54;28.83;;;12.88;;
65328;SDS011;51941;52.210;5.158;2023-11-21T00:09:22;24.33;;;11.73;;
65328;SDS011;51941;52.210;5.158;2023-11-21T00:11:49;26.05;;;13.90;;
65328;SDS011;51941;52.210;5.158;2023-11-21T00:14:16;29.17;;;12.48;;
65328;SDS011;51941;52.210;5.158;2023-11-21T00:16:42;27.52;;;13.55;;
65328;SDS011;51941;52.210;5.158;2023-11-21T00:19:09;30.50;;;12.85;;
65328;SDS011;51941;52.210;5.158;2023-11-21T00:21:36;33.15;;;12.43;;
65328;SDS011;51941;52.210;5.158;2023-11-21T00:24:03;29.27;;;12.93;;
65328;SDS011;51941;52.210;5.158;2023-11-21T00:26:31;40.15;;;12.27;;
65328;SDS011;51941;52.210;5.158;2023-11-21T00:29:02;26.90;;;11.70;;
65328;SDS011;51941;52.210;5.158;2023-11-21T00:31:33;20.80;;;11.25;;
65328;SDS011;51941;52.210;5.158;2023-11-21T00:34:01;32.70;;;12.20;;
65328;SDS011;51941;52.210;5.158;2023-11-21T00:36:28;19.90;;;11.88;;
65328;SDS011;51941;52.210;5.158;2023-11-21T00:38:55;22.50;;;11.35;;
65328;SDS011;51941;52.210;5.158;2023-11-21T00:41:22;19.58;;;11.38;;
65328;SDS011;51941;52.210;5.158;2023-11-21T00:43:50;17.38;;;11.20;;
65328;SDS011;51941;52.210;5.158;2023-11-21T00:46:17;19.60;;;11.85;;
65328;SDS011;51941;52.210;5.158;2023-11-21T00:48:43;17.73;;;11.18;;
65328;SDS011;51941;52.210;5.158;2023-11-21T00:51:10;17.83;;;10.88;;
65328;SDS011;51941;52.210;5.158;2023-11-21T00:53:36;17.80;;;11.02;;
65328;SDS011;51941;52.210;5.158;2023-11-21T00:56:04;17.38;;;10.20;;
65328;SDS011;51941;52.210;5.158;2023-11-21T00:58:33;16.63;;;10.18;;
65328;SDS011;51941;52.210;5.158;2023-11-21T01:01:02;15.40;;;9.75;;
65328;SDS011;51941;52.210;5.158;2023-11-21T01:03:28;21.10;;;10.45;;
65328;SDS011;51941;52.210;5.158;2023-11-21T01:05:56;24.13;;;11.07;;
65328;SDS011;51941;52.210;5.158;2023-11-21T01:08:22;15.70;;;9.93;;
65328;SDS011;51941;52.210;5.158;2023-11-21T01:10:50;16.95;;;9.80;;
65328;SDS011;51941;52.210;5.158;2023-11-21T01:13:17;15.57;;;10.10;;
65328;SDS011;51941;52.210;5.158;2023-11-21T01:15:43;15.55;;;9.80;;
65328;SDS011;51941;52.210;5.158;2023-11-21T01:18:11;14.98;;;8.95;;
65328;SDS011;51941;52.210;5.158;2023-11-21T01:20:38;13.70;;;9.43;;
65328;SDS011;51941;52.210;5.158;2023-11-21T01:23:05;14.52;;;9.80;;
65328;SDS011;51941;52.210;5.158;2023-11-21T01:25:32;14.93;;;9.57;;
65328;SDS011;51941;52.210;5.158;2023-11-21T01:27:58;13.00;;;8.88;;
65328;SDS011;51941;52.210;5.158;2023-11-21T01:30:25;11.65;;;9.02;;
65328;SDS011;51941;52.210;5.158;2023-11-21T01:32:52;15.05;;;8.90;;
65328;SDS011;51941;52.210;5.158;2023-11-21T01:35:20;15.45;;;9.48;;
65328;SDS011;51941;52.210;5.158;2023-11-21T01:37:47;12.73;;;8.88;;
65328;SDS011;51941;52.210;5.158;2023-11-21T01:40:14;14.38;;;8.65;;
65328;SDS011;51941;52.210;5.158;2023-11-21T01:42:41;12.30;;;8.40;;
65328;SDS011;51941;52.210;5.158;2023-11-21T01:45:10;12.70;;;8.52;;
65328;SDS011;51941;52.210;5.158;2023-11-21T01:47:38;13.00;;;8.35;;
65328;SDS011;51941;52.210;5.158;2023-11-21T01:50:06;12.13;;;8.40;;
65328;SDS011;51941;52.210;5.158;2023-11-21T01:52:38;11.93;;;8.02;;
65328;SDS011;51941;52.210;5.158;2023-11-21T01:55:06;12.88;;;8.07;;
65328;SDS011;51941;52.210;5.158;2023-11-21T01:57:35;11.38;;;7.68;;
65328;SDS011;51941;52.210;5.158;2023-11-21T02:00:03;15.02;;;7.93;;
65328;SDS011;51941;52.210;5.158;2023-11-21T02:02:41;12.23;;;7.93;;
65328;SDS011;51941;52.210;5.158;2023-11-21T02:05:09;10.40;;;7.90;;
65328;SDS011;51941;52.210;5.158;2023-11-21T02:07:39;13.30;;;7.38;;
65328;SDS011;51941;52.210;5.158;2023-11-21T02:10:06;11.13;;;7.63;;
65328;SDS011;51941;52.210;5.158;2023-11-21T02:12:33;14.18;;;7.53;;
65328;SDS011;51941;52.210;5.158;2023-11-21T02:15:01;10.80;;;7.47;;
65328;SDS011;51941;52.210;5.158;2023-11-21T02:17:30;10.67;;;7.27;;
65328;SDS011;51941;52.210;5.158;2023-11-21T02:19:58;12.30;;;7.53;;
65328;SDS011;51941;52.210;5.158;2023-11-21T02:22:25;9.75;;;7.50;;
65328;SDS011;51941;52.210;5.158;2023-11-21T02:24:57;17.33;;;7.18;;
65328;SDS011;51941;52.210;5.158;2023-11-21T02:27:24;11.73;;;7.68;;
65328;SDS011;51941;52.210;5.158;2023-11-21T02:29:52;10.35;;;7.05;;
65328;SDS011;51941;52.210;5.158;2023-11-21T02:32:20;11.63;;;7.50;;
65328;SDS011;51941;52.210;5.158;2023-11-21T02:34:48;16.33;;;7.80;;
65328;SDS011;51941;52.210;5.158;2023-11-21T02:37:15;12.98;;;7.75;;
65328;SDS011;51941;52.210;5.158;2023-11-21T02:39:41;10.45;;;7.28;;
65328;SDS011;51941;52.210;5.158;2023-11-21T02:42:09;12.55;;;7.55;;
65328;SDS011;51941;52.210;5.158;2023-11-21T02:44:36;11.68;;;7.57;;
65328;SDS011;51941;52.210;5.158;2023-11-21T02:47:03;18.73;;;7.70;;
65328;SDS011;51941;52.210;5.158;2023-11-21T02:49:30;14.25;;;7.80;;
65328;SDS011;51941;52.210;5.158;2023-11-21T02:51:57;13.60;;;7.53;;
65328;SDS011;51941;52.210;5.158;2023-11-21T02:54:27;12.80;;;7.32;;
65328;SDS011;51941;52.210;5.158;2023-11-21T02:56:54;15.52;;;7.18;;
65328;SDS011;51941;52.210;5.158;2023-11-21T02:59:22;13.15;;;7.50;;
65328;SDS011;51941;52.210;5.158;2023-11-21T03:01:48;13.05;;;7.30;;
65328;SDS011;51941;52.210;5.158;2023-11-21T03:04:15;11.20;;;7.03;;
65328;SDS011;51941;52.210;5.158;2023-11-21T03:06:43;11.38;;;7.32;;
65328;SDS011;51941;52.210;5.158;2023-11-21T03:09:10;15.32;;;7.32;;
65328;SDS011;51941;52.210;5.158;2023-11-21T03:11:38;9.75;;;6.50;;
65328;SDS011;51941;52.210;5.158;2023-11-21T03:14:05;12.65;;;6.93;;
65328;SDS011;51941;52.210;5.158;2023-11-21T03:16:33;11.65;;;6.85;;
65328;SDS011;51941;52.210;5.158;2023-11-21T03:19:00;12.13;;;6.50;;
65328;SDS011;51941;52.210;5.158;2023-11-21T03:21:27;17.08;;;7.45;;
65328;SDS011;51941;52.210;5.158;2023-11-21T03:23:54;13.00;;;7.38;;
65328;SDS011;51941;52.210;5.158;2023-11-21T03:26:21;14.90;;;7.50;;
65328;SDS011;51941;52.210;5.158;2023-11-21T03:28:47;10.98;;;7.18;;
65328;SDS011;51941;52.210;5.158;2023-11-21T03:31:15;11.18;;;7.20;;
65328;SDS011;51941;52.210;5.158;2023-11-21T03:33:43;14.25;;;6.75;;
65328;SDS011;51941;52.210;5.158;2023-11-21T03:36:10;11.77;;;6.65;;
65328;SDS011;51941;52.210;5.158;2023-11-21T03:38:37;14.88;;;6.70;;
65328;SDS011;51941;52.210;5.158;2023-11-21T03:41:04;18.58;;;7.22;;
65328;SDS011;51941;52.210;5.158;2023-11-21T03:43:31;13.13;;;6.90;;
65328;SDS011;51941;52.210;5.158;2023-11-21T03:45:58;15.52;;;6.78;;
65328;SDS011;51941;52.210;5.158;2023-11-21T03:48:24;13.18;;;7.18;;
65328;SDS011;51941;52.210;5.158;2023-11-21T03:50:53;15.55;;;7.03;;
65328;SDS011;51941;52.210;5.158;2023-11-21T03:53:19;15.73;;;7.25;;
65328;SDS011;51941;52.210;5.158;2023-11-21T03:55:46;12.10;;;7.25;;
65328;SDS011;51941;52.210;5.158;2023-11-21T03:58:13;13.50;;;6.78;;
65328;SDS011;51941;52.210;5.158;2023-11-21T04:00:39;13.15;;;6.78;;
65328;SDS011;51941;52.210;5.158;2023-11-21T04:03:06;11.13;;;6.65;;
65328;SDS011;51941;52.210;5.158;2023-11-21T04:05:33;13.02;;;7.25;;
65328;SDS011;51941;52.210;5.158;2023-11-21T04:08:01;12.05;;;7.00;;
65328;SDS011;51941;52.210;5.158;2023-11-21T04:10:28;12.95;;;7.32;;
65328;SDS011;51941;52.210;5.158;2023-11-21T04:12:54;13.60;;;7.15;;
65328;SDS011;51941;52.210;5.158;2023-11-21T04:15:21;16.38;;;7.50;;
65328;SDS011;51941;52.210;5.158;2023-11-21T04:17:51;12.30;;;7.35;;
65328;SDS011;51941;52.210;5.158;2023-11-21T04:20:17;12.30;;;7.30;;
65328;SDS011;51941;52.210;5.158;2023-11-21T04:22:44;13.80;;;7.35;;
65328;SDS011;51941;52.210;5.158;2023-11-21T04:25:13;10.50;;;7.15;;
65328;SDS011;51941;52.210;5.158;2023-11-21T04:27:40;12.25;;;7.60;;
65328;SDS011;51941;52.210;5.158;2023-11-21T04:30:09;12.97;;;7.53;;
65328;SDS011;51941;52.210;5.158;2023-11-21T04:32:37;12.90;;;7.25;;
65328;SDS011;51941;52.210;5.158;2023-11-21T04:35:04;18.35;;;8.02;;
65328;SDS011;51941;52.210;5.158;2023-11-21T04:37:31;14.10;;;6.88;;
65328;SDS011;51941;52.210;5.158;2023-11-21T04:39:58;12.23;;;6.53;;
65328;SDS011;51941;52.210;5.158;2023-11-21T04:42:26;9.57;;;6.38;;
65328;SDS011;51941;52.210;5.158;2023-11-21T04:44:54;12.47;;;6.90;;
65328;SDS011;51941;52.210;5.158;2023-11-21T04:47:20;12.13;;;6.72;;
65328;SDS011;51941;52.210;5.158;2023-11-21T04:49:47;13.45;;;6.80;;
65328;SDS011;51941;52.210;5.158;2023-11-21T04:52:14;14.27;;;7.30;;
65328;SDS011;51941;52.210;5.158;2023-11-21T04:54:40;10.60;;;6.85;;
65328;SDS011;51941;52.210;5.158;2023-11-21T04:57:08;16.20;;;7.18;;
65328;SDS011;51941;52.210;5.158;2023-11-21T04:59:36;15.10;;;7.00;;
65328;SDS011;51941;52.210;5.158;2023-11-21T05:02:02;9.88;;;6.60;;
65328;SDS011;51941;52.210;5.158;2023-11-21T05:04:30;10.30;;;6.57;;
65328;SDS011;51941;52.210;5.158;2023-11-21T05:06:57;16.83;;;6.50;;
65328;SDS011;51941;52.210;5.158;2023-11-21T05:09:23;9.88;;;5.93;;
65328;SDS011;51941;52.210;5.158;2023-11-21T05:11:50;10.93;;;6.30;;
65328;SDS011;51941;52.210;5.158;2023-11-21T05:14:18;13.38;;;6.68;;
65328;SDS011;51941;52.210;5.158;2023-11-21T05:16:47;11.55;;;7.10;;
65328;SDS011;51941;52.210;5.158;2023-11-21T05:19:13;11.85;;;6.53;;
65328;SDS011;51941;52.210;5.158;2023-11-21T05:21:40;12.90;;;6.55;;
65328;SDS011;51941;52.210;5.158;2023-11-21T05:24:07;13.73;;;7.03;;
65328;SDS011;51941;52.210;5.158;2023-11-21T05:26:34;13.32;;;7.72;;
65328;SDS011;51941;52.210;5.158;2023-11-21T05:29:01;15.57;;;7.35;;
65328;SDS011;51941;52.210;5.158;2023-11-21T05:31:28;14.10;;;7.28;;
65328;SDS011;51941;52.210;5.158;2023-11-21T05:33:56;18.27;;;7.65;;
65328;SDS011;51941;52.210;5.158;2023-11-21T05:36:23;10.43;;;6.93;;
65328;SDS011;51941;52.210;5.158;2023-11-21T05:38:49;10.82;;;6.85;;
65328;SDS011;51941;52.210;5.158;2023-11-21T05:41:16;14.20;;;7.00;;
65328;SDS011;51941;52.210;5.158;2023-11-21T05:43:43;14.23;;;7.15;;
65328;SDS011;51941;52.210;5.158;2023-11-21T05:46:10;11.82;;;6.72;;
65328;SDS011;51941;52.210;5.158;2023-11-21T05:48:36;13.25;;;6.60;;
65328;SDS011;51941;52.210;5.158;2023-11-21T05:51:05;12.25;;;7.60;;
65328;SDS011;51941;52.210;5.158;2023-11-21T05:53:33;18.42;;;8.68;;
65328;SDS011;51941;52.210;5.158;2023-11-21T05:56:00;13.70;;;7.43;;
65328;SDS011;51941;52.210;5.158;2023-11-21T05:58:26;11.82;;;7.35;;
65328;SDS011;51941;52.210;5.158;2023-11-21T06:00:53;12.15;;;8.00;;
65328;SDS011;51941;52.210;5.158;2023-11-21T06:03:20;13.05;;;8.43;;
65328;SDS011;51941;52.210;5.158;2023-11-21T06:05:48;16.02;;;8.18;;
65328;SDS011;51941;52.210;5.158;2023-11-21T06:08:16;14.18;;;7.50;;
65328;SDS011;51941;52.210;5.158;2023-11-21T06:10:44;12.70;;;7.23;;
65328;SDS011;51941;52.210;5.158;2023-11-21T06:13:14;13.35;;;7.95;;
65328;SDS011;51941;52.210;5.158;2023-11-21T06:15:41;14.23;;;7.85;;
65328;SDS011;51941;52.210;5.158;2023-11-21T06:18:08;13.93;;;7.63;;
65328;SDS011;51941;52.210;5.158;2023-11-21T06:20:36;13.40;;;7.53;;
65328;SDS011;51941;52.210;5.158;2023-11-21T06:23:03;16.08;;;8.23;;
65328;SDS011;51941;52.210;5.158;2023-11-21T06:25:32;12.20;;;7.88;;
65328;SDS011;51941;52.210;5.158;2023-11-21T06:28:01;11.82;;;7.85;;
65328;SDS011;51941;52.210;5.158;2023-11-21T06:30:28;17.17;;;8.50;;
65328;SDS011;51941;52.210;5.158;2023-11-21T06:32:55;13.85;;;6.65;;
65328;SDS011;51941;52.210;5.158;2023-11-21T06:35:21;14.25;;;7.13;;
65328;SDS011;51941;52.210;5.158;2023-11-21T06:37:48;13.27;;;6.47;;
65328;SDS011;51941;52.210;5.158;2023-11-21T06:40:16;13.63;;;7.28;;
65328;SDS011;51941;52.210;5.158;2023-11-21T06:42:45;16.13;;;7.15;;
65328;SDS011;51941;52.210;5.158;2023-11-21T06:45:12;12.23;;;7.07;;
65328;SDS011;51941;52.210;5.158;2023-11-21T06:47:40;18.30;;;6.75;;
65328;SDS011;51941;52.210;5.158;2023-11-21T06:50:07;16.83;;;7.03;;
65328;SDS011;51941;52.210;5.158;2023-11-21T06:52:34;16.17;;;6.47;;
65328;SDS011;51941;52.210;5.158;2023-11-21T06:55:01;21.35;;;7.80;;
65328;SDS011;51941;52.210;5.158;2023-11-21T06:57:28;16.05;;;7.55;;
65328;SDS011;51941;52.210;5.158;2023-11-21T06:59:56;14.80;;;6.63;;
65328;SDS011;51941;52.210;5.158;2023-11-21T07:02:23;13.45;;;6.30;;
65328;SDS011;51941;52.210;5.158;2023-11-21T07:04:50;16.83;;;6.15;;
65328;SDS011;51941;52.210;5.158;2023-11-21T07:07:17;10.25;;;5.60;;
65328;SDS011;51941;52.210;5.158;2023-11-21T07:09:44;13.15;;;5.72;;
65328;SDS011;51941;52.210;5.158;2023-11-21T07:12:11;14.73;;;6.72;;
65328;SDS011;51941;52.210;5.158;2023-11-21T07:14:39;14.52;;;7.07;;
65328;SDS011;51941;52.210;5.158;2023-11-21T07:17:09;11.07;;;5.60;;
65328;SDS011;51941;52.210;5.158;2023-11-21T07:19:37;10.32;;;5.75;;
65328;SDS011;51941;52.210;5.158;2023-11-21T07:22:04;11.40;;;5.72;;
65328;SDS011;51941;52.210;5.158;2023-11-21T07:24:31;13.20;;;6.00;;
65328;SDS011;51941;52.210;5.158;2023-11-21T07:26:58;8.63;;;4.88;;
65328;SDS011;51941;52.210;5.158;2023-11-21T07:29:26;10.77;;;5.93;;
65328;SDS011;51941;52.210;5.158;2023-11-21T07:31:54;7.70;;;4.68;;
65328;SDS011;51941;52.210;5.158;2023-11-21T07:34:22;10.02;;;5.28;;
65328;SDS011;51941;52.210;5.158;2023-11-21T07:36:49;10.20;;;6.45;;
65328;SDS011;51941;52.210;5.158;2023-11-21T07:39:16;8.80;;;5.15;;
65328;SDS011;51941;52.210;5.158;2023-11-21T07:41:42;11.85;;;5.50;;
65328;SDS011;51941;52.210;5.158;2023-11-21T07:44:14;14.15;;;6.00;;
65328;SDS011;51941;52.210;5.158;2023-11-21T07:46:42;12.32;;;6.22;;
65328;SDS011;51941;52.210;5.158;2023-11-21T07:49:09;15.15;;;7.10;;
65328;SDS011;51941;52.210;5.158;2023-11-21T07:51:37;15.85;;;7.00;;
65328;SDS011;51941;52.210;5.158;2023-11-21T07:54:04;18.20;;;7.80;;
65328;SDS011;51941;52.210;5.158;2023-11-21T07:56:31;16.65;;;6.88;;
65328;SDS011;51941;52.210;5.158;2023-11-21T07:58:58;14.55;;;6.43;;
65328;SDS011;51941;52.210;5.158;2023-11-21T08:01:25;18.98;;;8.38;;
65328;SDS011;51941;52.210;5.158;2023-11-21T08:03:53;16.83;;;7.28;;
65328;SDS011;51941;52.210;5.158;2023-11-21T08:06:22;16.52;;;7.88;;
65328;SDS011;51941;52.210;5.158;2023-11-21T08:08:52;20.17;;;8.45;;
65328;SDS011;51941;52.210;5.158;2023-11-21T08:11:18;21.80;;;7.85;;
65328;SDS011;51941;52.210;5.158;2023-11-21T08:13:46;17.23;;;8.70;;
65328;SDS011;51941;52.210;5.158;2023-11-21T08:16:13;19.40;;;9.30;;
65328;SDS011;51941;52.210;5.158;2023-11-21T08:18:39;19.08;;;8.32;;
65328;SDS011;51941;52.210;5.158;2023-11-21T08:21:07;14.88;;;8.02;;
65328;SDS011;51941;52.210;5.158;2023-11-21T08:23:34;16.75;;;8.23;;
65328;SDS011;51941;52.210;5.158;2023-11-21T08:26:02;20.67;;;9.10;;
65328;SDS011;51941;52.210;5.158;2023-11-21T08:28:29;15.32;;;7.97;;
65328;SDS011;51941;52.210;5.158;2023-11-21T08:30:55;14.93;;;7.18;;
65328;SDS011;51941;52.210;5.158;2023-11-21T08:33:22;11.75;;;6.75;;
65328;SDS011;51941;52.210;5.158;2023-11-21T08:35:49;13.68;;;6.70;;
65328;SDS011;51941;52.210;5.158;2023-11-21T08:38:15;10.95;;;6.28;;
65328;SDS011;51941;52.210;5.158;2023-11-21T08:40:42;12.98;;;6.85;;
65328;SDS011;51941;52.210;5.158;2023-11-21T08:43:11;11.63;;;6.75;;
65328;SDS011;51941;52.210;5.158;2023-11-21T08:45:39;13.50;;;6.90;;
65328;SDS011;51941;52.210;5.158;2023-11-21T08:48:05;11.00;;;5.90;;
65328;SDS011;51941;52.210;5.158;2023-11-21T08:50:32;9.15;;;5.55;;
65328;SDS011;51941;52.210;5.158;2023-11-21T08:52:59;7.53;;;5.55;;
65328;SDS011;51941;52.210;5.158;2023-11-21T08:55:26;9.35;;;5.00;;
65328;SDS011;51941;52.210;5.158;2023-11-21T08:57:53;10.32;;;5.78;;
65328;SDS011;51941;52.210;5.158;2023-11-21T09:00:24;9.48;;;5.30;;
65328;SDS011;51941;52.210;5.158;2023-11-21T09:02:50;7.38;;;5.05;;
65328;SDS011;51941;52.210;5.158;2023-11-21T09:05:17;6.78;;;4.07;;
65328;SDS011;51941;52.210;5.158;2023-11-21T09:07:45;9.90;;;5.40;;
65328;SDS011;51941;52.210;5.158;2023-11-21T09:10:13;6.85;;;5.10;;
65328;SDS011;51941;52.210;5.158;2023-11-21T09:12:40;8.55;;;5.00;;
65328;SDS011;51941;52.210;5.158;2023-11-21T09:15:08;8.60;;;5.10;;
65328;SDS011;51941;52.210;5.158;2023-11-21T09:17:38;7.63;;;4.65;;
65328;SDS011;51941;52.210;5.158;2023-11-21T09:20:05;5.18;;;4.10;;
65328;SDS011;51941;52.210;5.158;2023-11-21T09:25:01;9.63;;;4.63;;
65328;SDS011;51941;52.210;5.158;2023-11-21T09:27:30;10.38;;;5.10;;
65328;SDS011;51941;52.210;5.158;2023-11-21T09:29:57;6.47;;;4.47;;
65328;SDS011;51941;52.210;5.158;2023-11-21T09:32:23;8.77;;;4.18;;
65328;SDS011;51941;52.210;5.158;2023-11-21T09:34:51;9.18;;;5.05;;
65328;SDS011;51941;52.210;5.158;2023-11-21T09:37:20;6.88;;;4.32;;
65328;SDS011;51941;52.210;5.158;2023-11-21T09:39:47;6.93;;;4.47;;
65328;SDS011;51941;52.210;5.158;2023-11-21T09:42:15;7.63;;;5.25;;
65328;SDS011;51941;52.210;5.158;2023-11-21T09:44:57;6.88;;;4.50;;
65328;SDS011;51941;52.210;5.158;2023-11-21T09:47:31;8.20;;;4.82;;
65328;SDS011;51941;52.210;5.158;2023-11-21T09:50:02;8.82;;;4.57;;
65328;SDS011;51941;52.210;5.158;2023-11-21T09:52:33;7.90;;;4.30;;
65328;SDS011;51941;52.210;5.158;2023-11-21T09:55:10;6.03;;;4.50;;
65328;SDS011;51941;52.210;5.158;2023-11-21T09:57:40;9.00;;;4.88;;
65328;SDS011;51941;52.210;5.158;2023-11-21T10:00:08;6.30;;;4.00;;
65328;SDS011;51941;52.210;5.158;2023-11-21T10:02:37;8.23;;;4.78;;
65328;SDS011;51941;52.210;5.158;2023-11-21T10:05:07;7.97;;;4.57;;
65328;SDS011;51941;52.210;5.158;2023-11-21T10:07:36;8.40;;;5.47;;
65328;SDS011;51941;52.210;5.158;2023-11-21T10:10:05;5.63;;;4.13;;
65328;SDS011;51941;52.210;5.158;2023-11-21T10:12:34;6.65;;;4.70;;
65328;SDS011;51941;52.210;5.158;2023-11-21T10:15:02;9.02;;;4.88;;
65328;SDS011;51941;52.210;5.158;2023-11-21T10:17:31;6.53;;;4.18;;
65328;SDS011;51941;52.210;5.158;2023-11-21T10:20:04;11.32;;;5.88;;
65328;SDS011;51941;52.210;5.158;2023-11-21T10:22:38;8.75;;;5.38;;
65328;SDS011;51941;52.210;5.158;2023-11-21T10:25:07;6.88;;;4.65;;
65328;SDS011;51941;52.210;5.158;2023-11-21T10:27:34;6.38;;;4.30;;
65328;SDS011;51941;52.210;5.158;2023-11-21T10:30:04;10.90;;;5.85;;
65328;SDS011;51941;52.210;5.158;2023-11-21T10:32:32;8.10;;;5.55;;
65328;SDS011;51941;52.210;5.158;2023-11-21T10:34:59;11.30;;;6.00;;
65328;SDS011;51941;52.210;5.158;2023-11-21T10:37:31;10.48;;;5.75;;
65328;SDS011;51941;52.210;5.158;2023-11-21T10:40:00;12.68;;;6.72;;
65328;SDS011;51941;52.210;5.158;2023-11-21T10:44:54;11.27;;;7.32;;
65328;SDS011;51941;52.210;5.158;2023-11-21T10:47:21;11.93;;;7.13;;
65328;SDS011;51941;52.210;5.158;2023-11-21T10:49:49;12.18;;;7.05;;
65328;SDS011;51941;52.210;5.158;2023-11-21T10:52:16;9.40;;;6.47;;
65328;SDS011;51941;52.210;5.158;2023-11-21T10:57:14;18.27;;;9.77;;
65328;SDS011;51941;52.210;5.158;2023-11-21T10:59:46;18.13;;;9.30;;
65328;SDS011;51941;52.210;5.158;2023-11-21T11:02:24;17.35;;;8.65;;
65328;SDS011;51941;52.210;5.158;2023-11-21T11:04:53;16.95;;;9.35;;
65328;SDS011;51941;52.210;5.158;2023-11-21T11:07:21;17.25;;;9.13;;
65328;SDS011;51941;52.210;5.158;2023-11-21T11:09:52;17.27;;;8.77;;
65328;SDS011;51941;52.210;5.158;2023-11-21T11:12:20;21.00;;;9.95;;
65328;SDS011;51941;52.210;5.158;2023-11-21T11:14:47;21.42;;;10.18;;
65328;SDS011;51941;52.210;5.158;2023-11-21T11:17:14;25.35;;;11.40;;
65328;SDS011;51941;52.210;5.158;2023-11-21T11:19:42;20.70;;;10.95;;
65328;SDS011;51941;52.210;5.158;2023-11-21T11:22:13;26.60;;;11.05;;
65328;SDS011;51941;52.210;5.158;2023-11-21T11:24:53;28.02;;;12.27;;
65328;SDS011;51941;52.210;5.158;2023-11-21T11:27:44;25.33;;;12.70;;
65328;SDS011;51941;52.210;5.158;2023-11-21T11:30:21;21.95;;;11.13;;
65328;SDS011;51941;52.210;5.158;2023-11-21T11:33:04;26.83;;;12.45;;
65328;SDS011;51941;52.210;5.158;2023-11-21T11:35:41;24.85;;;12.00;;
65328;SDS011;51941;52.210;5.158;2023-11-21T11:38:16;19.65;;;10.23;;
65328;SDS011;51941;52.210;5.158;2023-11-21T11:40:44;17.92;;;8.75;;
65328;SDS011;51941;52.210;5.158;2023-11-21T11:43:13;17.65;;;8.73;;
65328;SDS011;51941;52.210;5.158;2023-11-21T11:45:50;13.77;;;7.53;;
65328;SDS011;51941;52.210;5.158;2023-11-21T11:48:19;14.13;;;8.25;;
65328;SDS011;51941;52.210;5.158;2023-11-21T11:51:01;15.23;;;7.72;;
65328;SDS011;51941;52.210;5.158;2023-11-21T11:53:33;11.70;;;7.18;;
65328;SDS011;51941;52.210;5.158;2023-11-21T11:58:52;10.05;;;6.45;;
65328;SDS011;51941;52.210;5.158;2023-11-21T12:01:20;11.95;;;6.97;;
65328;SDS011;51941;52.210;5.158;2023-11-21T12:06:59;12.13;;;6.50;;
65328;SDS011;51941;52.210;5.158;2023-11-21T12:09:28;10.93;;;5.53;;
65328;SDS011;51941;52.210;5.158;2023-11-21T12:11:56;9.00;;;4.88;;
65328;SDS011;51941;52.210;5.158;2023-11-21T12:14:24;10.48;;;6.13;;
65328;SDS011;51941;52.210;5.158;2023-11-21T12:16:51;11.05;;;6.57;;
65328;SDS011;51941;52.210;5.158;2023-11-21T12:19:18;11.75;;;7.13;;
65328;SDS011;51941;52.210;5.158;2023-11-21T12:21:47;19.40;;;7.63;;
65328;SDS011;51941;52.210;5.158;2023-11-21T12:24:15;13.50;;;7.60;;
65328;SDS011;51941;52.210;5.158;2023-11-21T12:26:42;13.88;;;8.15;;
65328;SDS011;51941;52.210;5.158;2023-11-21T12:29:10;11.15;;;7.25;;
65328;SDS011;51941;52.210;5.158;2023-11-21T12:31:38;13.60;;;7.40;;
65328;SDS011;51941;52.210;5.158;2023-11-21T12:34:05;17.48;;;8.95;;
65328;SDS011;51941;52.210;5.158;2023-11-21T12:36:34;20.08;;;8.95;;
65328;SDS011;51941;52.210;5.158;2023-11-21T12:39:01;18.25;;;8.35;;
65328;SDS011;51941;52.210;5.158;2023-11-21T12:41:29;14.07;;;8.27;;
65328;SDS011;51941;52.210;5.158;2023-11-21T12:43:56;16.02;;;8.93;;
65328;SDS011;51941;52.210;5.158;2023-11-21T12:46:23;17.20;;;7.95;;
65328;SDS011;51941;52.210;5.158;2023-11-21T12:48:55;17.08;;;8.35;;
65328;SDS011;51941;52.210;5.158;2023-11-21T12:51:23;17.17;;;8.57;;
65328;SDS011;51941;52.210;5.158;2023-11-21T12:53:50;14.25;;;7.93;;
65328;SDS011;51941;52.210;5.158;2023-11-21T12:56:18;19.25;;;8.63;;
65328;SDS011;51941;52.210;5.158;2023-11-21T12:58:48;16.88;;;8.90;;
65328;SDS011;51941;52.210;5.158;2023-11-21T13:01:16;20.05;;;9.63;;
65328;SDS011;51941;52.210;5.158;2023-11-21T13:03:46;19.98;;;10.32;;
65328;SDS011;51941;52.210;5.158;2023-11-21T13:06:17;21.35;;;9.95;;
65328;SDS011;51941;52.210;5.158;2023-11-21T13:08:49;25.27;;;12.70;;
65328;SDS011;51941;52.210;5.158;2023-11-21T13:11:16;25.83;;;13.50;;
65328;SDS011;51941;52.210;5.158;2023-11-21T13:13:43;25.98;;;13.38;;
65328;SDS011;51941;52.210;5.158;2023-11-21T13:16:10;28.02;;;14.43;;
65328;SDS011;51941;52.210;5.158;2023-11-21T13:18:38;31.52;;;13.88;;
65328;SDS011;51941;52.210;5.158;2023-11-21T13:21:07;22.02;;;12.27;;
65328;SDS011;51941;52.210;5.158;2023-11-21T13:26:05;28.50;;;14.40;;
65328;SDS011;51941;52.210;5.158;2023-11-21T13:28:34;27.80;;;12.98;;
65328;SDS011;51941;52.210;5.158;2023-11-21T13:31:02;21.95;;;11.85;;
65328;SDS011;51941;52.210;5.158;2023-11-21T13:33:35;23.50;;;11.43;;
65328;SDS011;51941;52.210;5.158;2023-11-21T13:36:03;21.08;;;11.57;;
65328;SDS011;51941;52.210;5.158;2023-11-21T13:38:33;21.73;;;11.85;;
65328;SDS011;51941;52.210;5.158;2023-11-21T13:41:02;18.17;;;9.40;;
65328;SDS011;51941;52.210;5.158;2023-11-21T13:43:32;22.48;;;12.45;;
65328;SDS011;51941;52.210;5.158;2023-11-21T13:45:59;25.00;;;12.05;;
65328;SDS011;51941;52.210;5.158;2023-11-21T13:48:35;25.55;;;12.55;;
65328;SDS011;51941;52.210;5.158;2023-11-21T13:51:07;31.08;;;13.25;;
65328;SDS011;51941;52.210;5.158;2023-11-21T13:53:41;27.95;;;12.50;;
65328;SDS011;51941;52.210;5.158;2023-11-21T13:56:09;22.00;;;12.65;;
65328;SDS011;51941;52.210;5.158;2023-11-21T13:58:38;20.80;;;11.05;;
65328;SDS011;51941;52.210;5.158;2023-11-21T14:01:11;18.80;;;10.77;;
65328;SDS011;51941;52.210;5.158;2023-11-21T14:03:57;23.08;;;13.20;;
65328;SDS011;51941;52.210;5.158;2023-11-21T14:06:33;23.20;;;12.90;;
65328;SDS011;51941;52.210;5.158;2023-11-21T14:09:09;26.70;;;13.75;;
65328;SDS011;51941;52.210;5.158;2023-11-21T14:11:40;17.23;;;11.30;;
65328;SDS011;51941;52.210;5.158;2023-11-21T14:14:07;16.13;;;11.50;;
65328;SDS011;51941;52.210;5.158;2023-11-21T14:16:34;18.13;;;11.50;;
65328;SDS011;51941;52.210;5.158;2023-11-21T14:19:01;17.25;;;11.90;;
65328;SDS011;51941;52.210;5.158;2023-11-21T14:21:39;16.65;;;11.32;;
65328;SDS011;51941;52.210;5.158;2023-11-21T14:24:08;16.38;;;11.70;;
65328;SDS011;51941;52.210;5.158;2023-11-21T14:26:35;17.90;;;11.52;;
65328;SDS011;51941;52.210;5.158;2023-11-21T14:29:03;17.58;;;10.73;;
65328;SDS011;51941;52.210;5.158;2023-11-21T14:31:30;16.17;;;11.20;;
65328;SDS011;51941;52.210;5.158;2023-11-21T14:33:57;12.95;;;10.25;;
65328;SDS011;51941;52.210;5.158;2023-11-21T14:36:24;14.18;;;9.95;;
65328;SDS011;51941;52.210;5.158;2023-11-21T14:38:51;15.07;;;10.23;;
65328;SDS011;51941;52.210;5.158;2023-11-21T14:41:18;15.77;;;10.18;;
65328;SDS011;51941;52.210;5.158;2023-11-21T14:43:45;14.88;;;10.27;;
65328;SDS011;51941;52.210;5.158;2023-11-21T14:46:16;14.50;;;9.80;;
65328;SDS011;51941;52.210;5.158;2023-11-21T14:48:44;12.18;;;8.57;;
65328;SDS011;51941;52.210;5.158;2023-11-21T14:51:20;13.38;;;9.70;;
65328;SDS011;51941;52.210;5.158;2023-11-21T14:53:56;12.55;;;9.52;;
65328;SDS011;51941;52.210;5.158;2023-11-21T14:56:31;11.80;;;8.93;;